createdAt,value
2023-05-10T00:00:40.755Z,94056.00
2023-05-10T00:01:40.804Z,94056.00
2023-05-10T00:02:40.898Z,94058.00
2023-05-10T00:03:40.933Z,94056.00
2023-05-10T00:04:40.907Z,94056.00
2023-05-10T00:05:40.924Z,94058.00
2023-05-10T00:06:40.975Z,94058.00
2023-05-10T00:07:41.010Z,94058.00
2023-05-10T00:08:41.081Z,94060.00
2023-05-10T00:09:41.121Z,94060.00
2023-05-10T00:10:41.173Z,94062.00
2023-05-10T00:11:41.216Z,94060.00
2023-05-10T00:12:41.312Z,94060.00
2023-05-10T00:13:41.331Z,94060.00
2023-05-10T00:14:41.365Z,94060.00
2023-05-10T00:15:41.404Z,94058.00
2023-05-10T00:16:41.490Z,94060.00
2023-05-10T00:17:41.564Z,94056.00
2023-05-10T00:18:41.577Z,94054.00
2023-05-10T00:19:41.626Z,94054.00
2023-05-10T00:20:41.677Z,94058.00
2023-05-10T00:21:41.728Z,94054.00
2023-05-10T00:22:41.775Z,94054.00
2023-05-10T00:23:41.841Z,94054.00
2023-05-10T00:24:41.884Z,94056.00
2023-05-10T00:25:41.928Z,94056.00
2023-05-10T00:26:41.995Z,94054.00
2023-05-10T00:27:42.047Z,94054.00
2023-05-10T00:28:42.136Z,94056.00
2023-05-10T00:29:42.189Z,94054.00
2023-05-10T00:30:42.257Z,94058.00
2023-05-10T00:31:42.384Z,94056.00
2023-05-10T00:32:42.378Z,94054.00
2023-05-10T00:33:42.425Z,94054.00
2023-05-10T00:34:42.491Z,94058.00
2023-05-10T00:35:42.525Z,94054.00
2023-05-10T00:36:42.616Z,94056.00
2023-05-10T00:37:42.647Z,94054.00
2023-05-10T00:38:42.759Z,94050.00
2023-05-10T00:39:42.788Z,94054.00
2023-05-10T00:40:42.826Z,94050.00
2023-05-10T00:41:42.897Z,94050.00
2023-05-10T00:42:42.943Z,94050.00
2023-05-10T00:43:43.024Z,94052.00
2023-05-10T00:44:43.080Z,94048.00
2023-05-10T00:45:43.159Z,94050.00
2023-05-10T00:46:43.191Z,94046.00
2023-05-10T00:47:43.274Z,94046.00
2023-05-10T00:48:43.326Z,94046.00
2023-05-10T00:49:43.384Z,94046.00
2023-05-10T00:50:43.446Z,94042.00
2023-05-10T00:51:43.518Z,94042.00
2023-05-10T00:52:43.570Z,94040.00
2023-05-10T00:53:43.591Z,94040.00
2023-05-10T00:54:43.624Z,94040.00
2023-05-10T00:55:43.676Z,94044.00
2023-05-10T00:56:43.729Z,94040.00
2023-05-10T00:57:43.753Z,94042.00
2023-05-10T00:58:43.791Z,94042.00
2023-05-10T00:59:43.831Z,94044.00
2023-05-10T01:00:43.885Z,94040.00
2023-05-10T01:01:43.972Z,94042.00
2023-05-10T01:02:44.079Z,94042.00
2023-05-10T01:03:44.082Z,94038.00
2023-05-10T01:04:44.193Z,94042.00
2023-05-10T01:05:44.198Z,94038.00
2023-05-10T01:06:44.263Z,94034.00
2023-05-10T01:07:44.320Z,94032.00
2023-05-10T01:08:44.387Z,94032.00
2023-05-10T01:09:44.433Z,94034.00
2023-05-10T01:10:44.502Z,94034.00
2023-05-10T01:11:44.569Z,94036.00
2023-05-10T01:12:44.645Z,94032.00
2023-05-10T01:13:44.684Z,94034.00
2023-05-10T01:14:44.723Z,94034.00
2023-05-10T01:15:44.790Z,94032.00
2023-05-10T01:16:44.836Z,94034.00
2023-05-10T01:17:44.917Z,94032.00
2023-05-10T01:18:44.952Z,94034.00
2023-05-10T01:19:45.027Z,94034.00
2023-05-10T01:20:45.068Z,94036.00
2023-05-10T01:21:45.114Z,94036.00
2023-05-10T01:22:45.200Z,94036.00
2023-05-10T01:23:45.247Z,94036.00
2023-05-10T01:24:45.288Z,94040.00
2023-05-10T01:25:45.345Z,94042.00
2023-05-10T01:26:45.368Z,94040.00
2023-05-10T01:27:45.435Z,94040.00
2023-05-10T01:28:45.466Z,94038.00
2023-05-10T01:29:45.493Z,94044.00
2023-05-10T01:30:45.524Z,94042.00
2023-05-10T01:31:45.565Z,94042.00
2023-05-10T01:32:45.619Z,94042.00
2023-05-10T01:33:45.575Z,94040.00
2023-05-10T01:34:45.612Z,94042.00
2023-05-10T01:35:45.658Z,94044.00
2023-05-10T01:36:45.726Z,94042.00
2023-05-10T01:37:45.743Z,94048.00
2023-05-10T01:38:45.784Z,94046.00
2023-05-10T01:39:45.767Z,94046.00
2023-05-10T01:40:45.788Z,94048.00
2023-05-10T01:41:45.824Z,94048.00
2023-05-10T01:42:45.861Z,94048.00
2023-05-10T01:43:45.871Z,94048.00
2023-05-10T01:44:45.877Z,94050.00
2023-05-10T01:45:45.903Z,94054.00
2023-05-10T01:46:45.949Z,94056.00
2023-05-10T01:47:45.984Z,94058.00
2023-05-10T01:48:45.975Z,94058.00
2023-05-10T01:49:45.986Z,94060.00
2023-05-10T01:50:45.982Z,94062.00
2023-05-10T01:51:45.976Z,94062.00
2023-05-10T01:52:45.977Z,94062.00
2023-05-10T01:53:45.976Z,94063.00
2023-05-10T01:54:45.987Z,94065.00
2023-05-10T01:55:45.992Z,94067.00
2023-05-10T01:56:45.994Z,94067.00
2023-05-10T01:57:46.024Z,94069.00
2023-05-10T01:58:46.025Z,94069.00
2023-05-10T01:59:46.038Z,94071.00
2023-05-10T02:00:46.076Z,94071.00
2023-05-10T02:01:46.083Z,94073.00
2023-05-10T02:02:46.075Z,94075.00
2023-05-10T02:03:46.132Z,94075.00
2023-05-10T02:04:46.060Z,94079.00
2023-05-10T02:05:46.067Z,94079.00
2023-05-10T02:06:46.073Z,94081.00
2023-05-10T02:07:46.084Z,94083.00
2023-05-10T02:08:46.107Z,94081.00
2023-05-10T02:09:46.135Z,94083.00
2023-05-10T02:10:46.140Z,94085.00
2023-05-10T02:11:46.174Z,94087.00
2023-05-10T02:12:46.197Z,94087.00
2023-05-10T02:13:46.188Z,94085.00
2023-05-10T02:14:46.171Z,94085.00
2023-05-10T02:15:46.149Z,94089.00
2023-05-10T02:16:46.169Z,94087.00
2023-05-10T02:17:46.196Z,94089.00
2023-05-10T02:18:46.197Z,94085.00
2023-05-10T02:19:46.175Z,94091.00
2023-05-10T02:20:46.193Z,94089.00
2023-05-10T02:21:46.195Z,94089.00
2023-05-10T02:22:46.213Z,94087.00
2023-05-10T02:23:46.201Z,94089.00
2023-05-10T02:24:46.216Z,94089.00
2023-05-10T02:25:46.206Z,94085.00
2023-05-10T02:26:46.222Z,94089.00
2023-05-10T02:27:46.268Z,94091.00
2023-05-10T02:28:46.244Z,94089.00
2023-05-10T02:29:46.241Z,94091.00
2023-05-10T02:30:46.223Z,94093.00
2023-05-10T02:31:46.290Z,94089.00
2023-05-10T02:32:46.344Z,94091.00
2023-05-10T02:33:46.260Z,94091.00
2023-05-10T02:34:46.260Z,94093.00
2023-05-10T02:35:46.279Z,94093.00
2023-05-10T02:36:46.298Z,94093.00
2023-05-10T02:37:46.362Z,94093.00
2023-05-10T02:38:46.434Z,94097.00
2023-05-10T02:39:46.475Z,94099.00
2023-05-10T02:40:46.532Z,94093.00
2023-05-10T02:41:46.589Z,94095.00
2023-05-10T02:42:46.655Z,94091.00
2023-05-10T02:43:46.680Z,94091.00
2023-05-10T02:44:46.732Z,94089.00
2023-05-10T02:45:46.791Z,94087.00
2023-05-10T02:46:46.764Z,94085.00
2023-05-10T02:47:46.798Z,94083.00
2023-05-10T02:48:46.790Z,94087.00
2023-05-10T02:49:46.774Z,94083.00
2023-05-10T02:50:46.792Z,94087.00
2023-05-10T02:51:46.821Z,94091.00
2023-05-10T02:52:46.835Z,94087.00
2023-05-10T02:53:46.849Z,94091.00
2023-05-10T02:54:46.854Z,94087.00
2023-05-10T02:55:46.855Z,94087.00
2023-05-10T02:56:46.870Z,94089.00
2023-05-10T02:57:46.879Z,94089.00
2023-05-10T02:58:47.672Z,94089.00
2023-05-10T02:59:46.913Z,94087.00
2023-05-10T03:00:46.892Z,94091.00
2023-05-10T03:01:46.944Z,94093.00
2023-05-10T03:02:47.011Z,94093.00
2023-05-10T03:03:46.962Z,94095.00
2023-05-10T03:04:46.986Z,94097.00
2023-05-10T03:05:46.988Z,94093.00
2023-05-10T03:06:47.010Z,94099.00
2023-05-10T03:07:47.035Z,94099.00
2023-05-10T03:08:47.036Z,94099.00
2023-05-10T03:09:47.046Z,94095.00
2023-05-10T03:10:47.070Z,94097.00
2023-05-10T03:11:47.099Z,94095.00
2023-05-10T03:12:47.132Z,94097.00
2023-05-10T03:13:47.132Z,94097.00
2023-05-10T03:14:47.153Z,94101.00
2023-05-10T03:15:47.218Z,94103.00
2023-05-10T03:16:47.197Z,94105.00
2023-05-10T03:17:47.224Z,94105.00
2023-05-10T03:18:47.223Z,94101.00
2023-05-10T03:19:47.222Z,94105.00
2023-05-10T03:20:47.262Z,94103.00
2023-05-10T03:21:47.254Z,94103.00
2023-05-10T03:22:47.280Z,94107.00
2023-05-10T03:23:47.292Z,94107.00
2023-05-10T03:24:47.304Z,94107.00
2023-05-10T03:25:47.336Z,94109.00
2023-05-10T03:26:47.335Z,94109.00
2023-05-10T03:27:47.358Z,94120.00
2023-05-10T03:28:47.372Z,94120.00
2023-05-10T03:29:47.431Z,94120.00
2023-05-10T03:30:47.413Z,94124.00
2023-05-10T03:31:47.611Z,94126.00
2023-05-10T03:32:47.488Z,94126.00
2023-05-10T03:33:47.476Z,94126.00
2023-05-10T03:34:47.498Z,94126.00
2023-05-10T03:35:47.527Z,94128.00
2023-05-10T03:36:47.545Z,94128.00
2023-05-10T03:37:47.565Z,94130.00
2023-05-10T03:38:47.556Z,94124.00
2023-05-10T03:39:47.614Z,94124.00
2023-05-10T03:40:47.648Z,94128.00
2023-05-10T03:41:47.683Z,94126.00
2023-05-10T03:42:47.738Z,94126.00
2023-05-10T03:43:47.738Z,94126.00
2023-05-10T03:44:47.778Z,94126.00
2023-05-10T03:45:47.804Z,94126.00
2023-05-10T03:46:47.888Z,94126.00
2023-05-10T03:47:47.915Z,94124.00
2023-05-10T03:48:47.891Z,94124.00
2023-05-10T03:49:47.967Z,94124.00
2023-05-10T03:50:47.960Z,94122.00
2023-05-10T03:51:48.022Z,94124.00
2023-05-10T03:52:48.071Z,94124.00
2023-05-10T03:53:48.098Z,94124.00
2023-05-10T03:54:48.126Z,94126.00
2023-05-10T03:55:48.164Z,94126.00
2023-05-10T03:56:48.194Z,94126.00
2023-05-10T03:57:48.236Z,94126.00
2023-05-10T03:58:48.271Z,94128.00
2023-05-10T03:59:48.304Z,94124.00
2023-05-10T04:00:48.343Z,94128.00
2023-05-10T04:01:48.369Z,94126.00
2023-05-10T04:02:48.509Z,94126.00
2023-05-10T04:03:48.491Z,94126.00
2023-05-10T04:04:48.490Z,94130.00
2023-05-10T04:05:48.525Z,94130.00
2023-05-10T04:06:48.546Z,94126.00
2023-05-10T04:07:48.573Z,94126.00
2023-05-10T04:08:48.609Z,94130.00
2023-05-10T04:09:48.637Z,94126.00
2023-05-10T04:10:48.674Z,94128.00
2023-05-10T04:11:48.731Z,94130.00
2023-05-10T04:12:48.771Z,94130.00
2023-05-10T04:13:48.829Z,94130.00
2023-05-10T04:14:48.808Z,94130.00
2023-05-10T04:15:48.826Z,94128.00
2023-05-10T04:16:48.884Z,94128.00
2023-05-10T04:17:48.898Z,94130.00
2023-05-10T04:18:48.930Z,94128.00
2023-05-10T04:19:48.937Z,94130.00
2023-05-10T04:20:48.957Z,94128.00
2023-05-10T04:21:48.978Z,94132.00
2023-05-10T04:22:49.058Z,94128.00
2023-05-10T04:23:49.066Z,94128.00
2023-05-10T04:24:49.083Z,94128.00
2023-05-10T04:25:49.099Z,94130.00
2023-05-10T04:26:49.118Z,94130.00
2023-05-10T04:27:49.151Z,94132.00
2023-05-10T04:28:49.194Z,94132.00
2023-05-10T04:29:49.240Z,94132.00
2023-05-10T04:30:49.291Z,94130.00
2023-05-10T04:31:49.344Z,94132.00
2023-05-10T04:32:49.481Z,94130.00
2023-05-10T04:33:49.426Z,94130.00
2023-05-10T04:34:49.466Z,94132.00
2023-05-10T04:35:49.502Z,94132.00
2023-05-10T04:36:49.543Z,94132.00
2023-05-10T04:37:49.553Z,94130.00
2023-05-10T04:38:49.590Z,94128.00
2023-05-10T04:39:49.603Z,94132.00
2023-05-10T04:40:49.635Z,94134.00
2023-05-10T04:41:49.649Z,94134.00
2023-05-10T04:42:49.672Z,94136.00
2023-05-10T04:43:49.733Z,94138.00
2023-05-10T04:44:49.743Z,94138.00
2023-05-10T04:45:49.779Z,94140.00
2023-05-10T04:46:49.878Z,94144.00
2023-05-10T04:47:49.973Z,94146.00
2023-05-10T04:48:49.963Z,94144.00
2023-05-10T04:49:49.944Z,94146.00
2023-05-10T04:50:50.007Z,94146.00
2023-05-10T04:51:50.044Z,94144.00
2023-05-10T04:52:50.115Z,94144.00
2023-05-10T04:54:01.568Z,94148.00
2023-05-10T04:54:51.138Z,94150.00
2023-05-10T04:55:50.129Z,94152.00
2023-05-10T04:56:50.128Z,94152.00
2023-05-10T04:57:50.136Z,94154.00
2023-05-10T04:58:50.135Z,94156.00
2023-05-10T04:59:50.652Z,94156.00
2023-05-10T05:00:50.093Z,94156.00
2023-05-10T05:01:50.125Z,94158.00
2023-05-10T05:02:50.103Z,94160.00
2023-05-10T05:03:50.893Z,94156.00
2023-05-10T05:04:50.215Z,94162.00
2023-05-10T05:05:50.147Z,94162.00
2023-05-10T05:06:51.716Z,94163.00
2023-05-10T05:07:50.149Z,94165.00
2023-05-10T05:08:50.144Z,94165.00
2023-05-10T05:09:50.092Z,94165.00
2023-05-10T05:10:50.104Z,94163.00
2023-05-10T05:11:50.106Z,94163.00
2023-05-10T05:12:50.114Z,94160.00
2023-05-10T05:13:50.103Z,94160.00
2023-05-10T05:14:50.072Z,94162.00
2023-05-10T05:15:50.106Z,94163.00
2023-05-10T05:16:50.064Z,94165.00
2023-05-10T05:17:50.096Z,94165.00
2023-05-10T05:18:50.043Z,94165.00
2023-05-10T05:19:50.046Z,94167.00
2023-05-10T05:20:50.035Z,94165.00
2023-05-10T05:21:50.031Z,94165.00
2023-05-10T05:22:50.017Z,94165.00
2023-05-10T05:23:50.709Z,94169.00
2023-05-10T05:24:50.027Z,94171.00
2023-05-10T05:25:50.078Z,94169.00
2023-05-10T05:26:50.004Z,94175.00
2023-05-10T05:27:50.288Z,94173.00
2023-05-10T05:28:50.002Z,94173.00
2023-05-10T05:29:50.014Z,94173.00
2023-05-10T05:30:49.966Z,94177.00
2023-05-10T05:31:50.078Z,94177.00
2023-05-10T05:32:50.037Z,94173.00
2023-05-10T05:33:49.949Z,94175.00
2023-05-10T05:34:49.932Z,94177.00
2023-05-10T05:35:49.967Z,94177.00
2023-05-10T05:36:49.912Z,94177.00
2023-05-10T05:37:49.911Z,94177.00
2023-05-10T05:38:49.886Z,94177.00
2023-05-10T05:39:49.968Z,94179.00
2023-05-10T05:40:49.898Z,94181.00
2023-05-10T05:41:49.904Z,94179.00
2023-05-10T05:42:49.915Z,94173.00
2023-05-10T05:43:49.877Z,94181.00
2023-05-10T05:44:49.940Z,94177.00
2023-05-10T05:45:49.856Z,94179.00
2023-05-10T05:46:49.829Z,94181.00
2023-05-10T05:47:49.842Z,94181.00
2023-05-10T05:48:49.831Z,94179.00
2023-05-10T05:49:50.222Z,94185.00
2023-05-10T05:50:49.819Z,94183.00
2023-05-10T05:51:49.797Z,94179.00
2023-05-10T05:52:49.809Z,94185.00
2023-05-10T05:53:49.851Z,94185.00
2023-05-10T05:54:50.231Z,94185.00
2023-05-10T05:55:50.763Z,94183.00
2023-05-10T05:56:49.750Z,94187.00
2023-05-10T05:57:49.775Z,94183.00
2023-05-10T05:58:49.774Z,94185.00
2023-05-10T05:59:49.788Z,94183.00
2023-05-10T06:00:49.840Z,94185.00
2023-05-10T06:01:49.840Z,94187.00
2023-05-10T06:03:51.129Z,94189.00
2023-05-10T06:04:49.880Z,94191.00
2023-05-10T06:05:49.844Z,94193.00
2023-05-10T06:06:49.824Z,94191.00
2023-05-10T06:07:49.835Z,94193.00
2023-05-10T06:08:49.832Z,94193.00
2023-05-10T06:09:49.797Z,94195.00
2023-05-10T06:10:49.808Z,94197.00
2023-05-10T06:11:49.844Z,94197.00
2023-05-10T06:12:49.818Z,94199.00
2023-05-10T06:13:49.786Z,94195.00
2023-05-10T06:14:51.738Z,94195.00
2023-05-10T06:15:49.786Z,94195.00
2023-05-10T06:16:49.825Z,94195.00
2023-05-10T06:17:49.798Z,94203.00
2023-05-10T06:18:49.793Z,94201.00
2023-05-10T06:19:50.312Z,94201.00
2023-05-10T06:20:49.773Z,94199.00
2023-05-10T06:21:51.175Z,94203.00
2023-05-10T06:22:49.955Z,94203.00
2023-05-10T06:23:50.017Z,94203.00
2023-05-10T06:24:49.937Z,94203.00
2023-05-10T06:25:49.944Z,94203.00
2023-05-10T06:26:49.971Z,94203.00
2023-05-10T06:27:53.636Z,94203.00
2023-05-10T06:28:50.002Z,94203.00
2023-05-10T06:29:52.286Z,94207.00
2023-05-10T06:30:50.931Z,94203.00
2023-05-10T06:31:50.021Z,94203.00
2023-05-10T06:32:49.962Z,94203.00
2023-05-10T06:33:49.939Z,94205.00
2023-05-10T06:34:50.741Z,94201.00
2023-05-10T06:35:49.939Z,94203.00
2023-05-10T06:36:49.951Z,94203.00
2023-05-10T06:37:49.913Z,94205.00
2023-05-10T06:38:50.007Z,94203.00
2023-05-10T06:39:50.260Z,94203.00
2023-05-10T06:40:49.951Z,94203.00
2023-05-10T06:41:49.940Z,94203.00
2023-05-10T06:42:49.949Z,94203.00
2023-05-10T06:43:49.966Z,94205.00
2023-05-10T06:44:49.973Z,94201.00
2023-05-10T06:45:49.971Z,94201.00
2023-05-10T06:46:50.086Z,94201.00
2023-05-10T06:47:50.086Z,94201.00
2023-05-10T06:48:50.014Z,94203.00
2023-05-10T06:49:50.044Z,94201.00
2023-05-10T06:50:50.041Z,94199.00
2023-05-10T06:51:50.067Z,94205.00
2023-05-10T06:52:52.312Z,94201.00
2023-05-10T06:53:50.061Z,94201.00
2023-05-10T06:54:50.089Z,94199.00
2023-05-10T06:55:50.028Z,94197.00
2023-05-10T06:56:50.016Z,94197.00
2023-05-10T06:57:50.027Z,94195.00
2023-05-10T06:58:50.022Z,94191.00
2023-05-10T06:59:50.009Z,94195.00
2023-05-10T07:00:50.027Z,94191.00
2023-05-10T07:01:50.056Z,94195.00
2023-05-10T07:02:50.026Z,94193.00
2023-05-10T07:03:50.000Z,94193.00
2023-05-10T07:04:49.971Z,94193.00
2023-05-10T07:05:49.989Z,94191.00
2023-05-10T07:06:49.954Z,94193.00
2023-05-10T07:07:49.926Z,94191.00
2023-05-10T07:08:49.934Z,94193.00
2023-05-10T07:09:49.963Z,94191.00
2023-05-10T07:10:49.935Z,94193.00
2023-05-10T07:11:49.984Z,94193.00
2023-05-10T07:12:49.970Z,94195.00
2023-05-10T07:13:49.900Z,94193.00
2023-05-10T07:14:50.259Z,94195.00
2023-05-10T07:15:49.948Z,94195.00
2023-05-10T07:16:49.866Z,94197.00
2023-05-10T07:17:50.232Z,94199.00
2023-05-10T07:18:49.935Z,94199.00
2023-05-10T07:19:50.308Z,94201.00
2023-05-10T07:20:49.943Z,94201.00
2023-05-10T07:21:49.872Z,94195.00
2023-05-10T07:22:49.849Z,94199.00
2023-05-10T07:23:49.828Z,94199.00
2023-05-10T07:24:49.866Z,94203.00
2023-05-10T07:25:49.819Z,94203.00
2023-05-10T07:26:50.310Z,94201.00
2023-05-10T07:27:49.810Z,94201.00
2023-05-10T07:28:49.820Z,94203.00
2023-05-10T07:29:49.835Z,94205.00
2023-05-10T07:30:49.862Z,94203.00
2023-05-10T07:31:50.279Z,94203.00
2023-05-10T07:32:49.799Z,94201.00
2023-05-10T07:33:49.752Z,94197.00
2023-05-10T07:34:49.757Z,94197.00
2023-05-10T07:35:49.735Z,94197.00
2023-05-10T07:36:49.754Z,94203.00
2023-05-10T07:37:50.266Z,94203.00
2023-05-10T07:38:49.756Z,94205.00
2023-05-10T07:39:49.727Z,94203.00
2023-05-10T07:40:49.801Z,94203.00
2023-05-10T07:41:49.715Z,94203.00
2023-05-10T07:42:49.710Z,94201.00
2023-05-10T07:43:49.724Z,94201.00
2023-05-10T07:44:49.700Z,94199.00
2023-05-10T07:45:49.730Z,94203.00
2023-05-10T07:46:49.826Z,94207.00
2023-05-10T07:47:49.725Z,94203.00
2023-05-10T07:48:49.810Z,94205.00
2023-05-10T07:49:49.785Z,94209.00
2023-05-10T07:50:49.778Z,94209.00
2023-05-10T07:51:49.816Z,94207.00
2023-05-10T07:52:49.831Z,94209.00
2023-05-10T07:53:49.940Z,94210.00
2023-05-10T07:54:50.278Z,94209.00
2023-05-10T07:55:49.983Z,94210.00
2023-05-10T07:56:50.011Z,94210.00
2023-05-10T07:57:50.106Z,94210.00
2023-05-10T07:58:50.114Z,94214.00
2023-05-10T07:59:50.248Z,94210.00
2023-05-10T08:00:50.192Z,94210.00
2023-05-10T08:01:51.768Z,94210.00
2023-05-10T08:02:50.319Z,94209.00
2023-05-10T08:03:50.331Z,94210.00
2023-05-10T08:04:50.308Z,94210.00
2023-05-10T08:05:50.332Z,94212.00
2023-05-10T08:06:50.390Z,94212.00
2023-05-10T08:07:50.404Z,94214.00
2023-05-10T08:08:50.481Z,94216.00
2023-05-10T08:09:50.539Z,94214.00
2023-05-10T08:10:50.532Z,94216.00
2023-05-10T08:11:50.584Z,94218.00
2023-05-10T08:12:50.638Z,94214.00
2023-05-10T08:13:50.652Z,94218.00
2023-05-10T08:14:50.755Z,94218.00
2023-05-10T08:15:50.751Z,94218.00
2023-05-10T08:16:50.759Z,94216.00
2023-05-10T08:17:50.814Z,94214.00
2023-05-10T08:18:50.833Z,94216.00
2023-05-10T08:19:51.264Z,94216.00
2023-05-10T08:20:50.944Z,94216.00
2023-05-10T08:21:50.939Z,94218.00
2023-05-10T08:22:51.940Z,94220.00
2023-05-10T08:23:51.020Z,94218.00
2023-05-10T08:24:51.320Z,94220.00
2023-05-10T08:25:51.053Z,94220.00
2023-05-10T08:26:51.067Z,94222.00
2023-05-10T08:27:51.110Z,94220.00
2023-05-10T08:28:51.177Z,94224.00
2023-05-10T08:29:51.172Z,94222.00
2023-05-10T08:30:51.156Z,94216.00
2023-05-10T08:31:51.221Z,94220.00
2023-05-10T08:32:51.263Z,94216.00
2023-05-10T08:33:51.267Z,94218.00
2023-05-10T08:34:51.294Z,94214.00
2023-05-10T08:35:51.312Z,94218.00
2023-05-10T08:36:51.389Z,94218.00
2023-05-10T08:37:51.399Z,94220.00
2023-05-10T08:38:52.175Z,94218.00
2023-05-10T08:39:51.761Z,94220.00
2023-05-10T08:40:51.448Z,94222.00
2023-05-10T08:41:51.494Z,94224.00
2023-05-10T08:42:51.518Z,94222.00
2023-05-10T08:43:51.526Z,94222.00
2023-05-10T08:44:51.779Z,94222.00
2023-05-10T08:45:51.578Z,94222.00
2023-05-10T08:46:51.619Z,94224.00
2023-05-10T08:47:51.609Z,94222.00
2023-05-10T08:48:51.615Z,94220.00
2023-05-10T08:49:51.632Z,94224.00
2023-05-10T08:50:51.804Z,94220.00
2023-05-10T08:51:51.692Z,94224.00
2023-05-10T08:52:51.710Z,94222.00
2023-05-10T08:53:51.747Z,94224.00
2023-05-10T08:54:51.869Z,94224.00
2023-05-10T08:55:51.755Z,94224.00
2023-05-10T08:56:51.789Z,94226.00
2023-05-10T08:57:51.841Z,94226.00
2023-05-10T08:58:51.838Z,94230.00
2023-05-10T08:59:51.860Z,94226.00
2023-05-10T09:00:51.954Z,94230.00
2023-05-10T09:01:51.918Z,94232.00
2023-05-10T09:02:51.990Z,94228.00
2023-05-10T09:03:52.003Z,94232.00
2023-05-10T09:04:52.214Z,94234.00
2023-05-10T09:05:52.304Z,94232.00
2023-05-10T09:06:52.071Z,94232.00
2023-05-10T09:07:52.135Z,94234.00
2023-05-10T09:08:52.131Z,94234.00
2023-05-10T09:09:52.214Z,94232.00
2023-05-10T09:10:52.289Z,94230.00
2023-05-10T09:11:52.249Z,94230.00
2023-05-10T09:12:52.286Z,94228.00
2023-05-10T09:13:52.335Z,94230.00
2023-05-10T09:14:52.364Z,94230.00
2023-05-10T09:15:52.794Z,94230.00
2023-05-10T09:16:52.469Z,94228.00
2023-05-10T09:17:52.508Z,94228.00
2023-05-10T09:18:52.502Z,94230.00
2023-05-10T09:19:52.518Z,94228.00
2023-05-10T09:20:52.853Z,94230.00
2023-05-10T09:21:52.613Z,94226.00
2023-05-10T09:22:52.649Z,94226.00
2023-05-10T09:23:52.689Z,94230.00
2023-05-10T09:24:52.704Z,94222.00
2023-05-10T09:25:52.803Z,94228.00
2023-05-10T09:26:52.746Z,94228.00
2023-05-10T09:27:52.771Z,94228.00
2023-05-10T09:28:52.752Z,94232.00
2023-05-10T09:29:52.763Z,94232.00
2023-05-10T09:30:52.870Z,94238.00
2023-05-10T09:31:52.787Z,94240.00
2023-05-10T09:32:52.815Z,94238.00
2023-05-10T09:33:52.805Z,94236.00
2023-05-10T09:34:52.849Z,94240.00
2023-05-10T09:35:53.280Z,94240.00
2023-05-10T09:36:52.839Z,94244.00
2023-05-10T09:37:52.868Z,94246.00
2023-05-10T09:38:52.874Z,94240.00
2023-05-10T09:39:52.854Z,94244.00
2023-05-10T09:40:53.304Z,94244.00
2023-05-10T09:41:52.878Z,94246.00
2023-05-10T09:42:52.878Z,94244.00
2023-05-10T09:43:52.897Z,94246.00
2023-05-10T09:44:52.916Z,94246.00
2023-05-10T09:45:53.304Z,94246.00
2023-05-10T09:46:52.897Z,94248.00
2023-05-10T09:47:53.011Z,94248.00
2023-05-10T09:48:52.923Z,94246.00
2023-05-10T09:49:52.939Z,94250.00
2023-05-10T09:50:52.939Z,94248.00
2023-05-10T09:51:52.907Z,94250.00
2023-05-10T09:52:52.923Z,94254.00
2023-05-10T09:53:52.927Z,94248.00
2023-05-10T09:54:52.922Z,94252.00
2023-05-10T09:55:52.921Z,94250.00
2023-05-10T09:56:52.919Z,94254.00
2023-05-10T09:57:52.926Z,94252.00
2023-05-10T09:58:52.960Z,94248.00
2023-05-10T09:59:52.945Z,94250.00
2023-05-10T10:00:52.984Z,94248.00
2023-05-10T10:01:53.001Z,94250.00
2023-05-10T10:02:52.987Z,94250.00
2023-05-10T10:03:52.974Z,94248.00
2023-05-10T10:04:52.997Z,94248.00
2023-05-10T10:05:52.953Z,94248.00
2023-05-10T10:06:52.960Z,94252.00
2023-05-10T10:07:52.940Z,94246.00
2023-05-10T10:08:54.936Z,94246.00
2023-05-10T10:09:52.982Z,94244.00
2023-05-10T10:10:52.996Z,94242.00
2023-05-10T10:11:52.974Z,94246.00
2023-05-10T10:12:52.947Z,94246.00
2023-05-10T10:13:52.948Z,94246.00
2023-05-10T10:14:52.954Z,94248.00
2023-05-10T10:15:53.313Z,94250.00
2023-05-10T10:17:06.603Z,94250.00
2023-05-10T10:17:53.993Z,94252.00
2023-05-10T10:18:52.975Z,94252.00
2023-05-10T10:19:52.924Z,94250.00
2023-05-10T10:20:52.905Z,94252.00
2023-05-10T10:21:52.904Z,94252.00
2023-05-10T10:22:52.874Z,94250.00
2023-05-10T10:23:52.886Z,94252.00
2023-05-10T10:24:53.621Z,94252.00
2023-05-10T10:25:53.846Z,94252.00
2023-05-10T10:26:52.922Z,94250.00
2023-05-10T10:27:52.947Z,94250.00
2023-05-10T10:28:52.956Z,94252.00
2023-05-10T10:29:52.994Z,94250.00
2023-05-10T10:30:53.057Z,94252.00
2023-05-10T10:31:53.204Z,94250.00
2023-05-10T10:32:53.233Z,94252.00
2023-05-10T10:33:53.220Z,94252.00
2023-05-10T10:34:53.286Z,94252.00
2023-05-10T10:35:53.825Z,94256.00
2023-05-10T10:36:53.346Z,94252.00
2023-05-10T10:37:53.402Z,94250.00
2023-05-10T10:38:53.468Z,94252.00
2023-05-10T10:39:53.545Z,94252.00
2023-05-10T10:40:53.569Z,94252.00
2023-05-10T10:41:53.640Z,94254.00
2023-05-10T10:42:53.723Z,94252.00
2023-05-10T10:43:53.724Z,94254.00
2023-05-10T10:44:53.756Z,94254.00
2023-05-10T10:45:53.783Z,94254.00
2023-05-10T10:46:53.823Z,94254.00
2023-05-10T10:47:53.777Z,94254.00
2023-05-10T10:48:53.773Z,94256.00
2023-05-10T10:49:53.784Z,94256.00
2023-05-10T10:50:53.771Z,94256.00
2023-05-10T10:51:53.780Z,94256.00
2023-05-10T10:52:53.839Z,94254.00
2023-05-10T10:53:53.759Z,94258.00
2023-05-10T10:54:53.747Z,94256.00
2023-05-10T10:55:53.749Z,94258.00
2023-05-10T10:56:53.773Z,94258.00
2023-05-10T10:57:53.767Z,94260.00
2023-05-10T10:58:53.788Z,94260.00
2023-05-10T10:59:53.809Z,94258.00
2023-05-10T11:00:53.878Z,94258.00
2023-05-10T11:01:53.803Z,94258.00
2023-05-10T11:02:53.921Z,94262.00
2023-05-10T11:03:53.859Z,94260.00
2023-05-10T11:04:53.806Z,94260.00
2023-05-10T11:05:53.890Z,94262.00
2023-05-10T11:06:53.848Z,94264.00
2023-05-10T11:07:53.872Z,94262.00
2023-05-10T11:08:53.870Z,94262.00
2023-05-10T11:09:53.866Z,94264.00
2023-05-10T11:10:53.945Z,94262.00
2023-05-10T11:11:53.852Z,94262.00
2023-05-10T11:12:53.877Z,94260.00
2023-05-10T11:13:53.874Z,94258.00
2023-05-10T11:14:53.960Z,94256.00
2023-05-10T11:15:53.919Z,94252.00
2023-05-10T11:16:53.975Z,94252.00
2023-05-10T11:17:53.926Z,94254.00
2023-05-10T11:18:53.956Z,94254.00
2023-05-10T11:19:53.897Z,94252.00
2023-05-10T11:20:53.992Z,94254.00
2023-05-10T11:21:53.922Z,94254.00
2023-05-10T11:22:53.941Z,94254.00
2023-05-10T11:23:53.913Z,94256.00
2023-05-10T11:24:53.926Z,94256.00
2023-05-10T11:25:53.944Z,94252.00
2023-05-10T11:26:53.924Z,94254.00
2023-05-10T11:27:53.942Z,94254.00
2023-05-10T11:28:53.946Z,94252.00
2023-05-10T11:29:53.982Z,94254.00
2023-05-10T11:30:54.131Z,94248.00
2023-05-10T11:31:54.070Z,94252.00
2023-05-10T11:32:54.184Z,94254.00
2023-05-10T11:33:54.187Z,94254.00
2023-05-10T11:34:54.208Z,94254.00
2023-05-10T11:35:54.283Z,94250.00
2023-05-10T11:36:54.319Z,94256.00
2023-05-10T11:37:54.368Z,94254.00
2023-05-10T11:38:54.422Z,94252.00
2023-05-10T11:39:54.483Z,94252.00
2023-05-10T11:40:54.522Z,94256.00
2023-05-10T11:41:54.665Z,94254.00
2023-05-10T11:42:54.568Z,94256.00
2023-05-10T11:43:54.574Z,94252.00
2023-05-10T11:44:54.565Z,94258.00
2023-05-10T11:45:54.603Z,94258.00